Jork Reliance — V2CL2 — position and weather

sailwx.info

Track history (hours):
 
Tides and Currents Weather Stations Pressure Air Temp Water Temp Dewpoint Dewpoint Depression Visibility Wind Speed Wind Dir Waves Ship Positions

Jork Reliance

Last reported at 2015-Aug-05 05:33 UTC. Time now 2015-Aug-05 12:25 UTC.
Position N 51°54' W 005°52'.

Length 141 m; draft 6.4 m.

Type: Ship (hazmat cat A). MMSI: 305033000.

Date/timePositionNaut miles runAvg speedWind from/ knotsBaromVisibWave heightAir tempDewpointWater temp
2015-Aug-05 05:33N 51°54' W 005°52'1515.0
2015-Aug-05 04:34N 52°09' W 005°53'1515.0
2015-Aug-05 03:34N 52°24' W 005°54'1414.3
2015-Aug-05 02:34N 52°38' W 005°54'4 0.1
2015-Aug-03 18:11N 52°42' W 005°52'914.0
2015-Aug-03 17:33N 52°33' W 005°51'1414.0
2015-Aug-03 16:33N 52°19' W 005°49'1313.3
2015-Aug-03 15:33N 52°06' W 005°47'146 9.4
2015-Aug-03 00:04N 50°04' W 003°40'713.7
2015-Aug-02 23:33N 50°06' W 003°29'1413.0
2015-Aug-02 22:31N 50°09' W 003°08'1111.8
2015-Aug-02 21:33N 50°11' W 002°51'1111.2
2015-Aug-02 20:33N 50°14' W 002°34'1111.3
2015-Aug-02 19:33N 50°16' W 002°17'1212.3
2015-Aug-02 18:33N 50°19' W 001°58'1413.7
2015-Aug-02 17:34N 50°20' W 001°37'1616.1
2015-Aug-02 16:34N 50°23' W 001°12'1716.9
2015-Aug-02 15:34N 50°26' W 000°46'1616.4
2015-Aug-02 14:34N 50°30' W 000°21'1515.2
2015-Aug-02 13:34N 50°33' E 000°03'1414.2
2015-Aug-02 12:34N 50°37' E 000°24'1313.1
2015-Aug-02 11:34N 50°43' E 000°43'1313.1
2015-Aug-02 10:34N 50°50' E 000°60'1414.0
2015-Aug-02 09:33N 50°59' E 001°17'1717.0
2015-Aug-02 08:33N 51°10' E 001°38'1616.0
2015-Aug-02 07:33N 51°23' E 001°52'1414.3
2015-Aug-02 06:33N 51°34' E 002°07'1313.3
2015-Aug-02 05:33N 51°43' E 002°22'1312.4
2015-Aug-02 04:32N 51°52' E 002°37'1211.8
2015-Aug-02 03:32N 52°01' E 002°50'1212.1
2015-Aug-02 02:33N 52°02' E 003°09'1212.1
2015-Aug-02 01:34N 52°03' E 003°29'1312.6
2015-Aug-02 00:34N 52°02' E 003°49'1413.8
2015-Aug-01 23:34N 51°57' E 004°10'10 9.6
2015-Aug-01 22:31N 51°53' E 004°25'0 0.0
2015-Aug-01 21:30N 51°53' E 004°25'0 0.0
2015-Aug-01 20:31N 51°53' E 004°25'0 0.0
2015-Aug-01 19:31N 51°53' E 004°25'0 0.0
2015-Aug-01 18:31N 51°53' E 004°25'0 0.0
2015-Aug-01 17:31N 51°53' E 004°25'0 0.0
2015-Aug-01 16:31N 51°53' E 004°25'0 0.0
2015-Aug-01 15:31N 51°53' E 004°25'0 0.0
2015-Aug-01 14:31N 51°53' E 004°25'0 0.0
2015-Aug-01 13:31N 51°53' E 004°25'0 0.0
2015-Aug-01 12:31N 51°53' E 004°25'0 0.0
2015-Aug-01 11:28N 51°53' E 004°25'0 0.0
2015-Aug-01 10:33N 51°53' E 004°25'8 8.5
2015-Aug-01 09:33N 51°56' E 004°12'1313.0
2015-Aug-01 08:33N 51°60' E 003°52'1413.8
2015-Aug-01 07:34N 51°56' E 003°30'1514.4
2015-Aug-01 06:32N 51°45' E 003°16'1414.7
2015-Aug-01 05:33N 51°32' E 003°26'1211.6
2015-Aug-01 04:33N 51°26' E 003°42'9 9.0
2015-Aug-01 03:34N 51°22' E 003°55'9 9.4
2015-Aug-01 02:33N 51°23' E 004°10'5 5.0
2015-Aug-01 01:33N 51°20' E 004°17'0 0.0
2015-Aug-01 00:33N 51°20' E 004°17'0 0.0
2015-Jul-31 23:31N 51°20' E 004°17'0 0.0
2015-Jul-31 22:34N 51°20' E 004°17'0 0.0
2015-Jul-31 21:33N 51°20' E 004°17'0 0.0
2015-Jul-31 20:31N 51°20' E 004°17'0 0.0
2015-Jul-31 19:34N 51°20' E 004°17'0 0.0
2015-Jul-31 18:33N 51°20' E 004°17'0 0.0
2015-Jul-31 17:33N 51°20' E 004°17'0 0.0
2015-Jul-31 16:34N 51°20' E 004°17'0 0.0
2015-Jul-31 15:34N 51°20' E 004°17'0 0.0
2015-Jul-31 14:33N 51°20' E 004°17'0 0.0
2015-Jul-31 13:31N 51°20' E 004°17'0 0.0
2015-Jul-31 12:32N 51°20' E 004°17'0 0.0
2015-Jul-31 11:33N 51°20' E 004°17'6 6.3
2015-Jul-31 10:34N 51°22' E 004°07'1212.3
2015-Jul-31 09:33N 51°21' E 003°47'1312.7
2015-Jul-31 08:33N 51°25' E 003°28'1515.2
2015-Jul-31 07:34N 51°24' E 003°04'1413.9
2015-Jul-31 06:33N 51°22' E 002°42'1312.7
2015-Jul-31 05:32N 51°19' E 002°21'1313.7
2015-Jul-31 04:33N 51°13' E 002°03'1413.5
2015-Jul-31 03:33N 51°05' E 001°45'1312.9
2015-Jul-31 02:33N 50°56' E 001°30'1313.3
2015-Jul-31 01:33N 50°44' E 001°22'1413.4
2015-Jul-31 00:33N 50°35' E 001°06'1313.1
2015-Jul-30 23:33N 50°29' E 000°48'1613.2
2015-Jul-30 22:20N 50°25' E 000°23'6713.3
2015-Jul-30 17:18N 50°18' W 001°21'2512.6
2015-Jul-30 15:20N 50°15' W 001°59'27 3.0
2015-Jul-30 06:26N 50°11' W 002°41'1213.6
2015-Jul-30 05:33N 50°08' W 002°59'1313.3
2015-Jul-30 04:33N 50°06' W 003°19'149 7.9
2015-Jul-29 09:33N 51°58' W 005°55'1212.3
2015-Jul-29 08:33N 52°10' W 005°53'1211.6
2015-Jul-29 07:34N 52°22' W 005°53'1211.6
2015-Jul-29 06:33N 52°33' W 005°53'9 0.3
2015-Jul-28 00:10N 52°42' W 005°52'711.5
2015-Jul-27 23:33N 52°35' W 005°51'1111.1
2015-Jul-27 22:33N 52°24' W 005°50'1110.8
2015-Jul-27 21:33N 52°13' W 005°49'1111.2
2015-Jul-27 20:33N 52°02' W 005°48'143 8.8
2015-Jul-27 04:21N 50°04' W 003°40'911.7
2015-Jul-27 03:33N 50°06' W 003°25'1111.6
2015-Jul-27 02:33N 50°09' W 003°08'1211.7
2015-Jul-27 01:33N 50°11' W 002°50'5613.3
2015-Jul-26 21:20N 50°22' W 001°24'1214.4
2015-Jul-26 20:32N 50°24' W 001°06'4013.2
2015-Jul-26 17:29N 50°32' W 000°04'1112.2
2015-Jul-26 16:34N 50°35' E 000°13'1212.4
2015-Jul-26 15:34N 50°38' E 000°32'1212.5
2015-Jul-26 14:34N 50°45' E 000°48'1313.3
2015-Jul-26 13:33N 50°53' E 001°06'1414.3
2015-Jul-26 12:33N 51°02' E 001°23'1414.1
2015-Jul-26 11:33N 51°11' E 001°40'1313.1
2015-Jul-26 10:33N 51°22' E 001°52'1312.5
2015-Jul-26 09:33N 51°32' E 002°03'  
Track history (hours):
 
Tides and Currents Weather Stations Pressure Air Temp Water Temp Dewpoint Dewpoint Depression Visibility Wind Speed Wind Dir Waves Ship Positions

Jork Reliance

Last reported at 2015-Aug-05 05:33 UTC. Time now 2015-Aug-05 12:25 UTC.
Position N 51°54' W 005°52'.

Length 141 m; draft 6.4 m.

Type: Ship (hazmat cat A). MMSI: 305033000.

Date/timePositionNaut miles runAvg speedWind from/ knotsBaromVisibWave heightAir tempDewpointWater temp
2015-Aug-05 05:33N 51°54' W 005°52'1515.0
2015-Aug-05 04:34N 52°09' W 005°53'1515.0
2015-Aug-05 03:34N 52°24' W 005°54'1414.3
2015-Aug-05 02:34N 52°38' W 005°54'4 0.1
2015-Aug-03 18:11N 52°42' W 005°52'914.0
2015-Aug-03 17:33N 52°33' W 005°51'1414.0
2015-Aug-03 16:33N 52°19' W 005°49'1313.3
2015-Aug-03 15:33N 52°06' W 005°47'146 9.4
2015-Aug-03 00:04N 50°04' W 003°40'713.7
2015-Aug-02 23:33N 50°06' W 003°29'1413.0
2015-Aug-02 22:31N 50°09' W 003°08'1111.8
2015-Aug-02 21:33N 50°11' W 002°51'1111.2
2015-Aug-02 20:33N 50°14' W 002°34'1111.3
2015-Aug-02 19:33N 50°16' W 002°17'1212.3
2015-Aug-02 18:33N 50°19' W 001°58'1413.7
2015-Aug-02 17:34N 50°20' W 001°37'1616.1
2015-Aug-02 16:34N 50°23' W 001°12'1716.9
2015-Aug-02 15:34N 50°26' W 000°46'1616.4
2015-Aug-02 14:34N 50°30' W 000°21'1515.2
2015-Aug-02 13:34N 50°33' E 000°03'1414.2
2015-Aug-02 12:34N 50°37' E 000°24'1313.1
2015-Aug-02 11:34N 50°43' E 000°43'1313.1
2015-Aug-02 10:34N 50°50' E 000°60'1414.0
2015-Aug-02 09:33N 50°59' E 001°17'1717.0
2015-Aug-02 08:33N 51°10' E 001°38'1616.0
2015-Aug-02 07:33N 51°23' E 001°52'1414.3
2015-Aug-02 06:33N 51°34' E 002°07'1313.3
2015-Aug-02 05:33N 51°43' E 002°22'1312.4
2015-Aug-02 04:32N 51°52' E 002°37'1211.8
2015-Aug-02 03:32N 52°01' E 002°50'1212.1
2015-Aug-02 02:33N 52°02' E 003°09'1212.1
2015-Aug-02 01:34N 52°03' E 003°29'1312.6
2015-Aug-02 00:34N 52°02' E 003°49'1413.8
2015-Aug-01 23:34N 51°57' E 004°10'10 9.6
2015-Aug-01 22:31N 51°53' E 004°25'0 0.0
2015-Aug-01 21:30N 51°53' E 004°25'0 0.0
2015-Aug-01 20:31N 51°53' E 004°25'0 0.0
2015-Aug-01 19:31N 51°53' E 004°25'0 0.0
2015-Aug-01 18:31N 51°53' E 004°25'0 0.0
2015-Aug-01 17:31N 51°53' E 004°25'0 0.0
2015-Aug-01 16:31N 51°53' E 004°25'0 0.0
2015-Aug-01 15:31N 51°53' E 004°25'0 0.0
2015-Aug-01 14:31N 51°53' E 004°25'0 0.0
2015-Aug-01 13:31N 51°53' E 004°25'0 0.0
2015-Aug-01 12:31N 51°53' E 004°25'0 0.0
2015-Aug-01 11:28N 51°53' E 004°25'0 0.0
2015-Aug-01 10:33N 51°53' E 004°25'8 8.5
2015-Aug-01 09:33N 51°56' E 004°12'1313.0
2015-Aug-01 08:33N 51°60' E 003°52'1413.8
2015-Aug-01 07:34N 51°56' E 003°30'1514.4
2015-Aug-01 06:32N 51°45' E 003°16'1414.7
2015-Aug-01 05:33N 51°32' E 003°26'1211.6
2015-Aug-01 04:33N 51°26' E 003°42'9 9.0
2015-Aug-01 03:34N 51°22' E 003°55'9 9.4
2015-Aug-01 02:33N 51°23' E 004°10'5 5.0
2015-Aug-01 01:33N 51°20' E 004°17'0 0.0
2015-Aug-01 00:33N 51°20' E 004°17'0 0.0
2015-Jul-31 23:31N 51°20' E 004°17'0 0.0
2015-Jul-31 22:34N 51°20' E 004°17'0 0.0
2015-Jul-31 21:33N 51°20' E 004°17'0 0.0
2015-Jul-31 20:31N 51°20' E 004°17'0 0.0
2015-Jul-31 19:34N 51°20' E 004°17'0 0.0
2015-Jul-31 18:33N 51°20' E 004°17'0 0.0
2015-Jul-31 17:33N 51°20' E 004°17'0 0.0
2015-Jul-31 16:34N 51°20' E 004°17'0 0.0
2015-Jul-31 15:34N 51°20' E 004°17'0 0.0
2015-Jul-31 14:33N 51°20' E 004°17'0 0.0
2015-Jul-31 13:31N 51°20' E 004°17'0 0.0
2015-Jul-31 12:32N 51°20' E 004°17'0 0.0
2015-Jul-31 11:33N 51°20' E 004°17'6 6.3
2015-Jul-31 10:34N 51°22' E 004°07'1212.3
2015-Jul-31 09:33N 51°21' E 003°47'1312.7
2015-Jul-31 08:33N 51°25' E 003°28'1515.2
2015-Jul-31 07:34N 51°24' E 003°04'1413.9
2015-Jul-31 06:33N 51°22' E 002°42'1312.7
2015-Jul-31 05:32N 51°19' E 002°21'1313.7
2015-Jul-31 04:33N 51°13' E 002°03'1413.5
2015-Jul-31 03:33N 51°05' E 001°45'1312.9
2015-Jul-31 02:33N 50°56' E 001°30'1313.3
2015-Jul-31 01:33N 50°44' E 001°22'1413.4
2015-Jul-31 00:33N 50°35' E 001°06'1313.1
2015-Jul-30 23:33N 50°29' E 000°48'1613.2
2015-Jul-30 22:20N 50°25' E 000°23'6713.3
2015-Jul-30 17:18N 50°18' W 001°21'2512.6
2015-Jul-30 15:20N 50°15' W 001°59'27 3.0
2015-Jul-30 06:26N 50°11' W 002°41'1213.6
2015-Jul-30 05:33N 50°08' W 002°59'1313.3
2015-Jul-30 04:33N 50°06' W 003°19'149 7.9
2015-Jul-29 09:33N 51°58' W 005°55'1212.3
2015-Jul-29 08:33N 52°10' W 005°53'1211.6
2015-Jul-29 07:34N 52°22' W 005°53'1211.6
2015-Jul-29 06:33N 52°33' W 005°53'9 0.3
2015-Jul-28 00:10N 52°42' W 005°52'711.5
2015-Jul-27 23:33N 52°35' W 005°51'1111.1
2015-Jul-27 22:33N 52°24' W 005°50'1110.8
2015-Jul-27 21:33N 52°13' W 005°49'1111.2
2015-Jul-27 20:33N 52°02' W 005°48'143 8.8
2015-Jul-27 04:21N 50°04' W 003°40'911.7
2015-Jul-27 03:33N 50°06' W 003°25'1111.6
2015-Jul-27 02:33N 50°09' W 003°08'1211.7
2015-Jul-27 01:33N 50°11' W 002°50'5613.3
2015-Jul-26 21:20N 50°22' W 001°24'1214.4
2015-Jul-26 20:32N 50°24' W 001°06'4013.2
2015-Jul-26 17:29N 50°32' W 000°04'1112.2
2015-Jul-26 16:34N 50°35' E 000°13'1212.4
2015-Jul-26 15:34N 50°38' E 000°32'1212.5
2015-Jul-26 14:34N 50°45' E 000°48'1313.3
2015-Jul-26 13:33N 50°53' E 001°06'1414.3
2015-Jul-26 12:33N 51°02' E 001°23'1414.1
2015-Jul-26 11:33N 51°11' E 001°40'1313.1
2015-Jul-26 10:33N 51°22' E 001°52'1312.5
2015-Jul-26 09:33N 51°32' E 002°03'  

Dump ship's entire track history